createdAt,value
2018-07-27T00:00:13.633Z,59.82
2018-07-27T00:00:54.145Z,60.18
2018-07-27T00:01:34.618Z,60.28
2018-07-27T00:02:15.171Z,60.47
2018-07-27T00:02:55.635Z,60.77
2018-07-27T00:03:36.114Z,60.57
2018-07-27T00:04:16.643Z,60.67
2018-07-27T00:04:57.166Z,60.86
2018-07-27T00:05:37.621Z,60.57
2018-07-27T00:06:18.137Z,61.25
2018-07-27T00:06:58.639Z,61.05
2018-07-27T00:07:39.132Z,61.05
2018-07-27T00:08:19.622Z,60.96
2018-07-27T00:09:00.131Z,61.25
2018-07-27T00:09:40.672Z,60.96
2018-07-27T00:10:21.172Z,61.15
2018-07-27T00:11:01.678Z,61.15
2018-07-27T00:11:42.167Z,61.54
2018-07-27T00:12:22.686Z,61.44
2018-07-27T00:13:03.168Z,61.54
2018-07-27T00:13:43.663Z,61.83
2018-07-27T00:14:24.150Z,61.64
2018-07-27T00:15:04.670Z,61.54
2018-07-27T00:15:45.151Z,61.54
2018-07-27T00:16:25.615Z,61.74
2018-07-27T00:17:06.140Z,61.64
2018-07-27T00:17:46.617Z,61.83
2018-07-27T00:18:27.097Z,61.93
2018-07-27T00:19:07.606Z,61.61
2018-07-27T00:19:48.056Z,62.48
2018-07-27T00:20:28.603Z,62.29
2018-07-27T00:21:09.087Z,62.19
2018-07-27T00:21:49.599Z,62.48
2018-07-27T00:22:30.143Z,62.48
2018-07-27T00:23:10.664Z,62.48
2018-07-27T00:23:51.146Z,61.8
2018-07-27T00:24:31.591Z,62.19
2018-07-27T00:25:12.118Z,62.29
2018-07-27T00:25:52.631Z,62.19
2018-07-27T00:26:33.082Z,62.38
2018-07-27T00:27:13.600Z,62.29
2018-07-27T00:27:54.096Z,62.38
2018-07-27T00:28:34.604Z,62.19
2018-07-27T00:29:15.104Z,62.1
2018-07-27T00:29:55.588Z,62.38
2018-07-27T00:30:36.111Z,62.19
2018-07-27T00:31:16.601Z,62.38
2018-07-27T00:31:57.107Z,62.1
2018-07-27T00:32:37.644Z,62.48
2018-07-27T00:33:18.100Z,62.38
2018-07-27T00:33:58.632Z,62.87
2018-07-27T00:34:39.100Z,62.58
2018-07-27T00:35:19.606Z,63.07
2018-07-27T00:36:00.133Z,62.38
2018-07-27T00:36:40.590Z,62.58
2018-07-27T00:37:21.105Z,62.58
2018-07-27T00:38:01.608Z,62.48
2018-07-27T00:38:42.100Z,63.17
2018-07-27T00:39:22.612Z,63.17
2018-07-27T00:40:03.100Z,63.45
2018-07-27T00:40:43.625Z,63.36
2018-07-27T00:41:24.122Z,63.45
2018-07-27T00:42:04.614Z,63.36
2018-07-27T00:42:45.150Z,63.45
2018-07-27T00:43:25.600Z,63.36
2018-07-27T00:44:06.108Z,62.58
2018-07-27T00:44:46.628Z,62.58
2018-07-27T00:45:27.100Z,62.74
2018-07-27T00:46:07.640Z,62.55
2018-07-27T00:46:48.137Z,62.55
2018-07-27T00:47:28.665Z,62.94
2018-07-27T00:48:09.156Z,62.65
2018-07-27T00:48:49.677Z,63.13
2018-07-27T00:49:30.167Z,63.32
2018-07-27T00:50:10.683Z,63.59
2018-07-27T00:50:51.197Z,63.78
2018-07-27T00:51:31.653Z,63.1
2018-07-27T00:52:12.185Z,63.39
2018-07-27T00:52:52.647Z,63.49
2018-07-27T00:53:33.193Z,63.88
2018-07-27T00:54:13.668Z,63.88
2018-07-27T00:54:54.183Z,63.78
2018-07-27T00:55:34.677Z,63.78
2018-07-27T00:56:15.139Z,63.49
2018-07-27T00:56:55.649Z,63.1
2018-07-27T00:57:36.137Z,63.2
2018-07-27T00:58:16.757Z,63.39
2018-07-27T00:58:57.116Z,63.2
2018-07-27T00:59:37.650Z,63.39
2018-07-27T01:00:18.169Z,63.2
2018-07-27T01:00:58.641Z,63.29
2018-07-27T01:01:39.176Z,62.91
2018-07-27T01:02:19.672Z,63.78
2018-07-27T01:03:00.155Z,63.68
2018-07-27T01:03:40.634Z,63.68
2018-07-27T01:04:21.141Z,63.59
2018-07-27T01:05:01.644Z,63.2
2018-07-27T01:05:42.155Z,63.1
2018-07-27T01:10:00.866Z,63.78
2018-07-27T01:10:41.362Z,63.29
2018-07-27T01:11:21.860Z,63.1
2018-07-27T01:12:02.728Z,63.88
2018-07-27T01:12:43.912Z,63.39
2018-07-27T01:13:24.382Z,63.49
2018-07-27T01:14:05.418Z,63.59
2018-07-27T01:14:47.083Z,63.01
2018-07-27T01:15:29.486Z,62.81
2018-07-27T01:16:10.230Z,62.52
2018-07-27T01:16:50.810Z,62.62
2018-07-27T01:17:32.495Z,62.65
2018-07-27T01:18:12.979Z,62.62
2018-07-27T01:18:53.563Z,62.45
2018-07-27T01:19:34.086Z,62.52
2018-07-27T01:20:14.640Z,62.55
2018-07-27T01:20:55.184Z,63.04
2018-07-27T01:21:35.645Z,63.29
2018-07-27T01:22:16.160Z,63.49
2018-07-27T01:22:56.583Z,63.1
2018-07-27T01:23:37.101Z,63.98
2018-07-27T01:24:17.553Z,63.29
2018-07-27T01:24:58.087Z,63.01
2018-07-27T01:25:38.623Z,63.39
2018-07-27T01:26:19.070Z,63.29
2018-07-27T01:26:59.496Z,63.29
2018-07-27T01:27:40.079Z,63.2
2018-07-27T01:28:20.565Z,63.2
2018-07-27T01:29:00.997Z,63.2
2018-07-27T01:29:41.517Z,63.29
2018-07-27T01:30:22.018Z,63.29
2018-07-27T01:31:02.532Z,63.59
2018-07-27T01:31:43.029Z,63.39
2018-07-27T01:32:23.518Z,63.78
2018-07-27T01:33:03.991Z,63.78
2018-07-27T01:33:44.498Z,63.49
2018-07-27T01:34:25.009Z,63.2
2018-07-27T01:35:05.477Z,63.39
2018-07-27T01:35:46.032Z,63.68
2018-07-27T01:36:26.664Z,63.68
2018-07-27T01:37:07.304Z,63.39
2018-07-27T01:37:47.614Z,63.2
2018-07-27T01:38:28.093Z,63.59
2018-07-27T01:39:08.594Z,63.88
2018-07-27T01:39:49.138Z,62.91
2018-07-27T01:40:29.626Z,63.39
2018-07-27T01:41:10.144Z,63.1
2018-07-27T01:41:50.613Z,63.2
2018-07-27T01:42:31.114Z,63.49
2018-07-27T01:43:11.627Z,63.49
2018-07-27T01:43:52.160Z,63.29
2018-07-27T01:44:32.641Z,63.01
2018-07-27T01:45:13.144Z,63.29
2018-07-27T01:45:53.618Z,63.2
2018-07-27T01:46:34.087Z,63.49
2018-07-27T01:47:14.635Z,63.39
2018-07-27T01:47:55.129Z,63.29
2018-07-27T01:48:35.613Z,63.2
2018-07-27T01:49:16.127Z,63.2
2018-07-27T01:49:56.626Z,63.59
2018-07-27T01:50:37.067Z,63.59
2018-07-27T01:51:17.584Z,63.39
2018-07-27T01:51:58.072Z,63.01
2018-07-27T01:52:38.535Z,63.01
2018-07-27T01:53:19.058Z,62.52
2018-07-27T01:53:59.539Z,62.52
2018-07-27T01:54:40.055Z,62.91
2018-07-27T01:55:20.577Z,63.49
2018-07-27T01:56:01.075Z,63.49
2018-07-27T01:56:41.586Z,63.1
2018-07-27T01:57:22.057Z,63.39
2018-07-27T01:58:02.539Z,63.78
2018-07-27T01:58:42.995Z,63.29
2018-07-27T01:59:23.511Z,63.39
2018-07-27T02:00:03.960Z,63.2
2018-07-27T02:00:44.477Z,63.39
2018-07-27T02:01:24.996Z,63.39
2018-07-27T02:02:05.477Z,63.68
2018-07-27T02:02:45.999Z,63.29
2018-07-27T02:03:26.467Z,62.91
2018-07-27T02:04:06.949Z,63.88
2018-07-27T02:04:47.450Z,63.29
2018-07-27T02:05:27.953Z,62.81
2018-07-27T02:06:08.480Z,63.59
2018-07-27T02:06:48.989Z,63.17
2018-07-27T02:07:29.554Z,63.39
2018-07-27T02:08:10.000Z,63.59
2018-07-27T02:08:50.511Z,63.68
2018-07-27T02:09:30.990Z,63.29
2018-07-27T02:10:11.488Z,63.85
2018-07-27T02:10:51.992Z,63.78
2018-07-27T02:11:32.505Z,63.68
2018-07-27T02:12:12.992Z,63.29
2018-07-27T02:12:53.526Z,63.59
2018-07-27T02:13:34.015Z,63.85
2018-07-27T02:14:14.490Z,63.95
2018-07-27T02:14:54.994Z,64.04
2018-07-27T02:15:35.462Z,64.26
2018-07-27T02:16:15.968Z,63.65
2018-07-27T02:16:56.484Z,63.75
2018-07-27T02:17:36.957Z,63.46
2018-07-27T02:18:17.401Z,63.46
2018-07-27T02:18:57.890Z,63.95
2018-07-27T02:19:38.389Z,64.04
2018-07-27T02:20:18.906Z,63.95
2018-07-27T02:20:59.361Z,63.65
2018-07-27T02:21:39.846Z,63.26
2018-07-27T02:22:20.329Z,63.07
2018-07-27T02:23:00.818Z,63.36
2018-07-27T02:23:41.474Z,63.46
2018-07-27T02:24:21.795Z,63.46
2018-07-27T02:25:02.370Z,63.36
2018-07-27T02:25:42.804Z,63.36
2018-07-27T02:26:23.332Z,63.36
2018-07-27T02:27:03.766Z,63.56
2018-07-27T02:27:44.272Z,63.26
2018-07-27T02:28:24.764Z,63.26
2018-07-27T02:29:05.247Z,63.07
2018-07-27T02:29:45.765Z,63.26
2018-07-27T02:30:26.311Z,63.36
2018-07-27T02:31:06.750Z,63.26
2018-07-27T02:31:47.256Z,63.46
2018-07-27T02:32:27.706Z,62.49
2018-07-27T02:33:08.204Z,62.29
2018-07-27T02:33:48.825Z,62.88
2018-07-27T02:34:29.331Z,62.88
2018-07-27T02:35:09.796Z,62.95
2018-07-27T02:35:50.255Z,62.49
2018-07-27T02:36:30.797Z,62.49
2018-07-27T02:37:11.374Z,62.29
2018-07-27T02:37:51.876Z,62.29
2018-07-27T02:38:32.339Z,62.39
2018-07-27T02:39:12.795Z,62.29
2018-07-27T02:39:53.344Z,61.81
2018-07-27T02:40:33.829Z,62.39
2018-07-27T02:41:14.329Z,62.19
2018-07-27T02:41:54.814Z,62.29
2018-07-27T02:42:35.272Z,62.19
2018-07-27T02:43:15.785Z,62.78
2018-07-27T02:43:57.152Z,62.39
2018-07-27T02:44:37.663Z,62.49
2018-07-27T02:45:18.140Z,62.98
2018-07-27T02:45:58.699Z,62.98
2018-07-27T02:46:39.174Z,62.49
2018-07-27T02:47:19.629Z,62.19
2018-07-27T02:48:00.150Z,62.19
2018-07-27T02:48:40.624Z,62.39
2018-07-27T02:49:21.109Z,62.49
2018-07-27T02:50:01.636Z,63.07
2018-07-27T02:50:42.117Z,63.17
2018-07-27T02:51:22.692Z,62.88
2018-07-27T02:52:03.102Z,62.59
2018-07-27T02:52:43.615Z,62.98
2018-07-27T02:53:24.099Z,63.36
2018-07-27T02:54:04.618Z,63.17
2018-07-27T02:54:45.065Z,62.98
2018-07-27T02:55:25.627Z,62.98
2018-07-27T02:56:06.155Z,63.36
2018-07-27T02:56:46.649Z,63.43
2018-07-27T02:57:27.154Z,63.36
2018-07-27T02:58:07.625Z,63.07
2018-07-27T02:58:48.097Z,62.98
2018-07-27T02:59:28.636Z,62.29
2018-07-27T03:00:09.103Z,62.19
2018-07-27T03:00:49.604Z,62.39
2018-07-27T03:01:30.099Z,62.88
2018-07-27T03:02:10.583Z,62.29
2018-07-27T03:02:51.069Z,62.59
2018-07-27T03:03:31.523Z,62.78
2018-07-27T03:04:12.062Z,62.39
2018-07-27T03:04:52.542Z,62.29
2018-07-27T03:05:33.080Z,62.55
2018-07-27T03:06:13.587Z,62.39
2018-07-27T03:06:54.082Z,62.46
2018-07-27T03:07:34.564Z,62.26
2018-07-27T03:08:15.079Z,62.26
2018-07-27T03:08:55.607Z,62.88
2018-07-27T03:09:36.108Z,62.46
2018-07-27T03:10:16.608Z,63.04
2018-07-27T03:10:57.086Z,63.23
2018-07-27T03:11:37.576Z,63.33
2018-07-27T03:12:18.092Z,63.13
2018-07-27T03:12:58.618Z,63.13
2018-07-27T03:13:39.074Z,63.43
2018-07-27T03:14:19.590Z,63.23
2018-07-27T03:15:00.146Z,63.13
2018-07-27T03:15:40.589Z,63.82
2018-07-27T03:16:21.090Z,63.82
2018-07-27T03:17:01.650Z,63.62
2018-07-27T03:17:42.073Z,63.43
2018-07-27T03:18:22.641Z,63.91
2018-07-27T03:19:03.080Z,63.72
2018-07-27T03:19:43.608Z,64.01
2018-07-27T03:20:24.061Z,64.01
2018-07-27T03:21:04.536Z,63.72
2018-07-27T03:21:45.123Z,63.82
2018-07-27T03:22:25.602Z,63.53
2018-07-27T03:23:06.071Z,63.72
2018-07-27T03:23:46.555Z,63.62
2018-07-27T03:24:27.113Z,63.46
2018-07-27T03:25:07.623Z,63.53
2018-07-27T03:25:48.180Z,63.33
2018-07-27T03:26:28.686Z,63.62
2018-07-27T03:27:09.141Z,63.82
2018-07-27T03:27:49.666Z,63.88
2018-07-27T03:28:30.151Z,63.88
2018-07-27T03:29:10.660Z,63.4
2018-07-27T03:31:23.937Z,64.4
2018-07-27T03:32:04.455Z,63.91
2018-07-27T03:32:44.988Z,64.88
2018-07-27T03:33:25.528Z,64.4
2018-07-27T03:34:05.994Z,64.2
2018-07-27T03:34:46.481Z,64.3
2018-07-27T03:35:27.000Z,64.69
2018-07-27T03:36:07.464Z,64.3
2018-07-27T03:36:47.971Z,64.4
2018-07-27T03:37:28.486Z,64.4
2018-07-27T03:38:09.032Z,63.72
2018-07-27T03:38:49.453Z,63.72
2018-07-27T03:39:29.985Z,63.82
2018-07-27T03:40:10.499Z,63.91
2018-07-27T03:40:50.931Z,63.72
2018-07-27T03:41:31.483Z,63.23
2018-07-27T03:42:12.025Z,63.62
2018-07-27T03:42:52.466Z,63.69
2018-07-27T03:43:32.938Z,63.62
2018-07-27T03:44:13.440Z,63.91
2018-07-27T03:44:53.932Z,63.72
2018-07-27T03:45:34.466Z,64.5
2018-07-27T03:46:14.927Z,64.3
2018-07-27T03:46:55.553Z,64.78
2018-07-27T03:47:35.975Z,65.27
2018-07-27T03:48:16.506Z,64.59
2018-07-27T03:48:57.028Z,64.27
2018-07-27T03:49:37.542Z,64.01
2018-07-27T03:50:18.034Z,64.2
2018-07-27T03:50:58.539Z,64.4
2018-07-27T03:51:39.007Z,64.4
2018-07-27T03:52:19.500Z,64.78
2018-07-27T03:53:00.056Z,64.59
2018-07-27T03:53:40.556Z,64.78
2018-07-27T03:54:21.046Z,64.59
2018-07-27T03:55:01.504Z,64.69
2018-07-27T03:55:42.011Z,64.69
2018-07-27T03:56:22.513Z,64.11
2018-07-27T03:57:03.030Z,64.11
2018-07-27T03:57:43.545Z,63.82
2018-07-27T03:58:24.040Z,63.62
2018-07-27T03:59:04.539Z,63.72
2018-07-27T03:59:44.992Z,63.72
2018-07-27T04:00:25.513Z,64.11
2018-07-27T04:01:06.022Z,64.37
2018-07-27T04:01:46.496Z,64.4
2018-07-27T04:02:26.957Z,64.88
2018-07-27T04:03:07.488Z,64.11
2018-07-27T04:03:47.964Z,64.2
2018-07-27T04:04:28.415Z,64.78
2018-07-27T04:05:08.978Z,64.5
2018-07-27T04:05:49.464Z,64.3
2018-07-27T04:06:29.997Z,64.5
2018-07-27T04:07:10.492Z,64.88
2018-07-27T04:07:50.959Z,64.69
2018-07-27T04:08:31.469Z,64.11
2018-07-27T04:09:11.977Z,64.88
2018-07-27T04:09:52.416Z,64.78
2018-07-27T04:10:33.031Z,64.5
2018-07-27T04:11:13.420Z,64.69
2018-07-27T04:11:53.910Z,64.01
2018-07-27T04:12:34.437Z,64.27
2018-07-27T04:13:14.942Z,64.11
2018-07-27T04:13:55.377Z,64.3
2018-07-27T04:14:35.887Z,64.01
2018-07-27T04:15:16.426Z,63.91
2018-07-27T04:15:56.880Z,63.91
2018-07-27T04:16:37.383Z,64.2
2018-07-27T04:17:17.837Z,64.3
2018-07-27T04:17:58.387Z,64.2
2018-07-27T04:18:38.868Z,64.07
2018-07-27T04:19:19.362Z,63.98
2018-07-27T04:19:59.836Z,64.07
2018-07-27T04:20:40.331Z,63.78
2018-07-27T04:21:20.827Z,63.88
2018-07-27T04:22:01.349Z,64.17
2018-07-27T04:22:41.831Z,64.27
2018-07-27T04:23:22.312Z,63.98
2018-07-27T04:24:02.807Z,63.69
2018-07-27T04:24:43.254Z,63.98
2018-07-27T04:25:23.792Z,63.88
2018-07-27T04:26:04.276Z,63.59
2018-07-27T04:26:44.792Z,63.88
2018-07-27T04:27:25.347Z,64.47
2018-07-27T04:28:05.747Z,64.37
2018-07-27T04:28:46.251Z,64.37
2018-07-27T04:29:26.743Z,64.07
2018-07-27T04:30:07.197Z,64.17
2018-07-27T04:30:47.694Z,64.27
2018-07-27T04:31:28.170Z,64.72
2018-07-27T04:32:08.661Z,64.82
2018-07-27T04:32:49.184Z,64.72
2018-07-27T04:33:29.680Z,64.95
2018-07-27T04:34:10.162Z,64.95
2018-07-27T04:34:50.631Z,64.27
2018-07-27T04:35:31.134Z,63.88
2018-07-27T04:36:11.623Z,63.62
2018-07-27T04:36:52.119Z,63.88
2018-07-27T04:37:32.642Z,63.88
2018-07-27T04:38:13.126Z,64.01
2018-07-27T04:38:53.629Z,63.72
2018-07-27T04:39:34.134Z,64.2
2018-07-27T04:40:14.684Z,63.62
2018-07-27T04:40:55.167Z,64.01
2018-07-27T04:41:35.666Z,63.53
2018-07-27T04:42:16.132Z,63.53
2018-07-27T04:42:56.629Z,63.72
2018-07-27T04:43:37.144Z,63.62
2018-07-27T04:44:17.582Z,63.43
2018-07-27T04:44:58.093Z,63.62
2018-07-27T04:45:38.594Z,63.53
2018-07-27T04:46:19.076Z,64.11
2018-07-27T04:46:59.514Z,64.01
2018-07-27T04:47:40.052Z,64.01
2018-07-27T04:48:20.522Z,64.11
2018-07-27T04:49:01.055Z,63.53
2018-07-27T04:49:41.580Z,63.62
2018-07-27T04:50:22.060Z,63.53
2018-07-27T04:51:02.542Z,63.13
2018-07-27T04:51:43.046Z,63.04
2018-07-27T04:52:23.531Z,63.04
2018-07-27T04:53:04.038Z,63.33
2018-07-27T04:53:44.546Z,63.53
2018-07-27T04:54:24.988Z,63.82
2018-07-27T04:55:05.493Z,63.13
2018-07-27T04:55:46.033Z,63.33
2018-07-27T04:56:26.554Z,63.23
2018-07-27T04:57:06.994Z,63.91
2018-07-27T04:57:47.541Z,63.53
2018-07-27T04:58:28.023Z,63.26
2018-07-27T04:59:08.536Z,63.33
2018-07-27T04:59:49.028Z,63.56
2018-07-27T05:00:29.557Z,63.85
2018-07-27T05:01:10.022Z,63.36
2018-07-27T05:01:50.570Z,63.17
2018-07-27T05:02:31.025Z,63.46
2018-07-27T05:03:11.521Z,63.17
2018-07-27T05:03:52.040Z,63.36
2018-07-27T05:04:32.484Z,63.07
2018-07-27T05:05:12.968Z,62.1
2018-07-27T05:05:53.478Z,62.36
2018-07-27T05:06:34.033Z,62.16
2018-07-27T05:07:14.493Z,62.78
2018-07-27T05:07:55.014Z,62.1
2018-07-27T05:08:35.458Z,61.91
2018-07-27T05:09:15.940Z,60.74
2018-07-27T05:09:56.461Z,60.64
2018-07-27T05:10:36.982Z,60.94
2018-07-27T05:11:17.429Z,60.94
2018-07-27T05:11:57.929Z,60.64
2018-07-27T05:12:38.460Z,60.16
2018-07-27T05:13:18.935Z,59.87
2018-07-27T05:13:59.461Z,60.28
2018-07-27T05:14:39.928Z,59.87
2018-07-27T05:15:20.415Z,60.64
2018-07-27T05:16:00.910Z,60.16
2018-07-27T05:16:41.417Z,60.94
2018-07-27T05:17:21.948Z,61.32
2018-07-27T05:18:02.466Z,61.13
2018-07-27T05:18:42.957Z,61.42
2018-07-27T05:19:23.405Z,60.84
2018-07-27T05:20:03.919Z,60.94
2018-07-27T05:20:44.406Z,60.16
2018-07-27T05:21:24.921Z,60.55
2018-07-27T05:22:05.448Z,60.16
2018-07-27T05:22:45.986Z,60.84
2018-07-27T05:23:26.503Z,60.74
2018-07-27T05:24:07.004Z,60.64
2018-07-27T05:24:47.596Z,63.95
2018-07-27T05:25:28.446Z,68.41
2018-07-27T05:26:08.854Z,69.02
2018-07-27T05:26:49.434Z,66.86
2018-07-27T05:27:30.104Z,68.7
2018-07-27T05:28:10.612Z,68.51
2018-07-27T05:28:51.117Z,68.6
2018-07-27T05:29:31.571Z,69.18
2018-07-27T05:30:12.095Z,68.7
2018-07-27T05:30:52.610Z,69.28
2018-07-27T05:31:33.120Z,68.99
2018-07-27T05:32:13.569Z,68.51
2018-07-27T05:32:54.103Z,67.34
2018-07-27T05:33:34.566Z,67.05
2018-07-27T05:34:15.104Z,67.63
2018-07-27T05:34:55.530Z,69.28
2018-07-27T05:35:36.059Z,66.86
2018-07-27T05:36:16.584Z,68.6
2018-07-27T05:36:57.049Z,68.41
2018-07-27T05:37:37.601Z,68.79
2018-07-27T05:38:18.065Z,70.64
2018-07-27T05:38:58.558Z,71.8
2018-07-27T05:39:39.017Z,69.18
2018-07-27T05:40:19.541Z,73.36
2018-07-27T05:41:00.055Z,73.94
2018-07-27T05:41:40.540Z,72.67
2018-07-27T05:42:21.061Z,70.15
2018-07-27T05:43:01.567Z,70.83
2018-07-27T05:43:42.051Z,72.49
2018-07-27T05:44:22.573Z,71.12
2018-07-27T05:45:03.048Z,69.57
2018-07-27T05:45:43.525Z,68.79
2018-07-27T05:46:24.037Z,68.99
2018-07-27T05:47:04.663Z,70.35
2018-07-27T05:47:45.048Z,69.57
2018-07-27T05:48:25.558Z,70.15
2018-07-27T05:49:06.060Z,71.32
2018-07-27T05:49:46.589Z,70.35
2018-07-27T05:50:27.136Z,68.6
2018-07-27T05:51:07.587Z,67.73
2018-07-27T05:51:48.057Z,65.89
2018-07-27T05:52:28.559Z,67.54
2018-07-27T05:53:09.063Z,66.47
2018-07-27T05:53:49.556Z,66.3
2018-07-27T05:54:30.077Z,67.83
2018-07-27T05:55:10.604Z,66.3
2018-07-27T05:55:51.150Z,65.05
2018-07-27T05:56:31.581Z,65.08
2018-07-27T05:57:12.118Z,65.85
2018-07-27T05:57:52.600Z,65.95
2018-07-27T05:58:33.122Z,64.81
2018-07-27T05:59:13.661Z,68.99
2018-07-27T05:59:54.079Z,69.87
2018-07-27T06:00:34.603Z,65.04
2018-07-27T06:01:15.202Z,64.85
2018-07-27T06:01:55.585Z,62.64
2018-07-27T06:02:36.204Z,62.64
2018-07-27T06:03:16.615Z,62.35
2018-07-27T06:03:57.063Z,64.39
2018-07-27T06:04:37.579Z,65.75
2018-07-27T06:05:18.118Z,65.37
2018-07-27T06:05:58.564Z,64.59
2018-07-27T06:06:39.088Z,65.46
2018-07-27T06:07:19.604Z,63.9
2018-07-27T06:08:00.226Z,63.75
2018-07-27T06:08:40.805Z,64.52
2018-07-27T06:09:21.238Z,68.8
2018-07-27T06:10:01.716Z,68.61
2018-07-27T06:10:42.252Z,68.9
2018-07-27T06:11:22.753Z,67.25
2018-07-27T06:12:03.282Z,63.29
2018-07-27T06:12:43.692Z,60.85
2018-07-27T06:13:24.222Z,61.93
2018-07-27T06:14:04.705Z,63.58
2018-07-27T06:14:45.229Z,64.49
2018-07-27T06:15:25.795Z,65.46
2018-07-27T06:16:06.288Z,65.07
2018-07-27T06:16:46.796Z,64.87
2018-07-27T06:17:27.251Z,64.23
2018-07-27T06:18:07.860Z,64.03
2018-07-27T06:18:48.244Z,62.86
2018-07-27T06:19:28.796Z,61.21
2018-07-27T06:20:09.312Z,63.15
2018-07-27T06:20:49.803Z,65.04
2018-07-27T06:21:30.336Z,64.75
2018-07-27T06:22:10.741Z,66.21
2018-07-27T06:22:51.314Z,64.06
2018-07-27T06:23:31.843Z,66.11
2018-07-27T06:24:12.360Z,64.16
2018-07-27T06:24:52.844Z,66.69
2018-07-27T06:25:33.380Z,67.44
2018-07-27T06:26:13.844Z,63.64
2018-07-27T06:26:54.334Z,61.69
2018-07-27T06:27:34.894Z,59.48
2018-07-27T06:28:15.393Z,64.94
2018-07-27T06:28:55.901Z,70.27
2018-07-27T06:29:36.371Z,66.08
2018-07-27T06:30:16.967Z,63.93
2018-07-27T06:30:57.447Z,64.03
2018-07-27T06:31:37.903Z,65.5
2018-07-27T06:32:18.475Z,65.01
2018-07-27T06:32:58.859Z,65.01
2018-07-27T06:33:39.414Z,64.52
2018-07-27T06:34:20.851Z,65.26
2018-07-27T06:35:01.377Z,67.83
2018-07-27T06:35:41.879Z,69.07
2018-07-27T06:36:22.328Z,66.93
2018-07-27T06:37:02.920Z,68.87
2018-07-27T06:37:43.416Z,66.83
2018-07-27T06:38:23.878Z,65.85
2018-07-27T06:39:04.366Z,67.12
2018-07-27T06:39:44.895Z,65.75
2018-07-27T06:40:25.346Z,63.78
2018-07-27T06:41:05.864Z,63.87
2018-07-27T06:41:46.438Z,63.78
2018-07-27T06:42:26.931Z,62.32
2018-07-27T06:43:07.430Z,61.86
2018-07-27T06:43:48.092Z,62.51
2018-07-27T06:44:28.774Z,63.48
2018-07-27T06:45:09.300Z,61.18
2018-07-27T06:45:49.665Z,59.91
2018-07-27T06:46:30.293Z,62.93
2018-07-27T06:47:10.763Z,63.97
2018-07-27T06:47:51.311Z,63.87
2018-07-27T06:48:31.895Z,63.29
2018-07-27T06:49:12.434Z,62.8
2018-07-27T06:49:52.893Z,67.41
2018-07-27T06:50:33.379Z,69.42
2018-07-27T06:51:13.871Z,67.86
2018-07-27T06:51:54.403Z,65.23
2018-07-27T06:52:35.120Z,67.47
2018-07-27T06:53:15.530Z,67.32
2018-07-27T06:53:56.118Z,64.87
2018-07-27T06:54:37.380Z,64.97
2018-07-27T06:55:17.826Z,66.76
2018-07-27T06:55:58.438Z,63.84
2018-07-27T06:56:38.943Z,62.86
2018-07-27T06:57:19.382Z,62.5
2018-07-27T06:58:00.197Z,66.21
2018-07-27T06:58:40.740Z,69.53
2018-07-27T06:59:21.194Z,68.84
2018-07-27T07:00:01.634Z,63.96
2018-07-27T07:00:42.179Z,64.16
2018-07-27T07:01:22.640Z,64.78
2018-07-27T07:02:03.322Z,62.89
2018-07-27T07:02:43.826Z,62.82
2018-07-27T07:03:24.306Z,66.73
2018-07-27T07:04:04.768Z,63.7
2018-07-27T07:04:45.361Z,63.21
2018-07-27T07:05:25.775Z,65.56
2018-07-27T07:06:06.284Z,65.46
2018-07-27T07:06:46.822Z,61.85
2018-07-27T07:07:27.337Z,64.03
2018-07-27T07:08:07.798Z,63.54
2018-07-27T07:08:48.368Z,61.4
2018-07-27T07:09:28.820Z,64.03
2018-07-27T07:10:09.295Z,63.64
2018-07-27T07:10:49.866Z,67.44
2018-07-27T07:11:30.416Z,65.98
2018-07-27T07:12:10.851Z,66.17
2018-07-27T07:12:51.379Z,67.44
2018-07-27T07:13:31.893Z,64.12
2018-07-27T07:14:12.381Z,58.17
2018-07-27T07:14:52.892Z,58.66
2018-07-27T07:15:33.595Z,61.2
2018-07-27T07:16:14.302Z,61.82
2018-07-27T07:16:54.801Z,59.96
2018-07-27T07:17:35.287Z,63.57
2018-07-27T07:18:15.786Z,63.77
2018-07-27T07:18:56.420Z,66.02
2018-07-27T07:19:37.051Z,62.7
2018-07-27T07:20:17.504Z,60.25
2018-07-27T07:20:58.047Z,60.64
2018-07-27T07:21:38.827Z,60.35
2018-07-27T07:22:19.349Z,62.79
2018-07-27T07:22:59.885Z,56.64
2018-07-27T07:23:40.353Z,54
2018-07-27T07:24:20.879Z,53.91
2018-07-27T07:25:01.331Z,56.35
2018-07-27T07:25:41.994Z,61.43
2018-07-27T07:26:22.301Z,58.3
2018-07-27T07:27:02.930Z,61.2
2018-07-27T07:27:43.449Z,61.1
2018-07-27T07:28:24.075Z,61.3
2018-07-27T07:29:04.586Z,59.96
2018-07-27T07:29:45.137Z,59.28
2018-07-27T07:30:25.564Z,61.43
2018-07-27T07:31:06.223Z,61.04
2018-07-27T07:31:46.596Z,61.23
2018-07-27T07:32:27.058Z,60.45
2018-07-27T07:33:07.575Z,61.43
2018-07-27T07:33:48.130Z,60.86
2018-07-27T07:34:28.702Z,62.99
2018-07-27T07:35:09.192Z,64.06
2018-07-27T07:35:49.678Z,63.87
2018-07-27T07:36:30.131Z,62.79
2018-07-27T07:37:10.761Z,64.45
2018-07-27T07:37:51.229Z,63.96
2018-07-27T07:38:31.716Z,62.18
2018-07-27T07:39:12.233Z,60.74
2018-07-27T07:39:52.706Z,58.11
2018-07-27T07:40:33.226Z,62.3
2018-07-27T07:41:13.728Z,61.62
2018-07-27T07:41:54.208Z,61.13
2018-07-27T07:42:34.843Z,61.43
2018-07-27T07:43:15.371Z,60.25
2018-07-27T07:43:55.881Z,58.89
2018-07-27T07:44:36.344Z,57.71
2018-07-27T07:45:16.894Z,59.86
2018-07-27T07:45:57.390Z,60.55
2018-07-27T07:46:37.932Z,59.96
2018-07-27T07:47:18.366Z,58.79
2018-07-27T07:47:58.880Z,60.16
2018-07-27T07:48:39.423Z,61.33
2018-07-27T07:49:19.964Z,62.21
2018-07-27T07:50:00.441Z,59.18
2018-07-27T07:50:40.897Z,62.99
2018-07-27T07:51:21.419Z,59.96
2018-07-27T07:52:01.974Z,59.5
2018-07-27T07:52:42.413Z,60.35
2018-07-27T07:53:22.916Z,58.03
2018-07-27T07:54:03.489Z,58.81
2018-07-27T07:54:43.993Z,59.4
2018-07-27T07:55:24.447Z,63.7
2018-07-27T07:56:05.078Z,64.48
2018-07-27T07:56:45.592Z,65.75
2018-07-27T07:57:26.145Z,64.06
2018-07-27T07:58:06.636Z,61.33
2018-07-27T07:58:47.205Z,60.94
2018-07-27T07:59:27.650Z,62.82
2018-07-27T08:00:08.143Z,61.84
2018-07-27T08:00:48.626Z,62.33
2018-07-27T08:01:29.142Z,64.68
2018-07-27T08:02:11.330Z,61.16
2018-07-27T08:02:52.002Z,63.12
2018-07-27T08:03:32.480Z,64.71
2018-07-27T08:04:12.980Z,62.73
2018-07-27T08:04:53.527Z,60.8
2018-07-27T08:05:34.091Z,58.75
2018-07-27T08:06:14.531Z,64.03
2018-07-27T08:06:55.040Z,63.7
2018-07-27T08:07:35.488Z,66.73
2018-07-27T08:08:16.004Z,61.16
2018-07-27T08:08:56.469Z,61.16
2018-07-27T08:09:37.018Z,63.7
2018-07-27T08:10:17.531Z,64.39
2018-07-27T08:10:58.019Z,65.26
2018-07-27T08:11:38.686Z,61.55
2018-07-27T08:12:19.282Z,65.66
2018-07-27T08:12:59.780Z,65.66
2018-07-27T08:13:40.263Z,62.79
2018-07-27T08:14:20.725Z,64.68
2018-07-27T08:15:01.246Z,59.5
2018-07-27T08:15:41.763Z,59.99
2018-07-27T08:16:22.373Z,57.54
2018-07-27T08:17:10.352Z,61.06
2018-07-27T08:17:50.828Z,59.99
2018-07-27T08:18:31.374Z,57.64
2018-07-27T08:19:11.846Z,59.89
2018-07-27T08:19:52.366Z,62.13
2018-07-27T08:20:32.876Z,58.23
2018-07-27T08:21:13.384Z,56.76
2018-07-27T08:21:53.919Z,55.57
2018-07-27T08:22:34.453Z,61.33
2018-07-27T08:23:15.032Z,62.99
2018-07-27T08:23:55.425Z,62.89
2018-07-27T08:24:35.890Z,64.03
2018-07-27T08:25:16.392Z,59.77
2018-07-27T08:25:56.965Z,58.98
2018-07-27T08:26:37.392Z,57.03
2018-07-27T08:27:17.895Z,55.27
2018-07-27T08:27:58.402Z,60.35
2018-07-27T08:28:38.999Z,60.74
2018-07-27T08:29:19.566Z,62.6
2018-07-27T08:30:00.080Z,62.6
2018-07-27T08:30:40.662Z,63.77
2018-07-27T08:31:21.060Z,66.41
2018-07-27T08:32:01.556Z,66.8
2018-07-27T08:32:42.054Z,63.96
2018-07-27T08:33:22.561Z,66.5
2018-07-27T08:34:03.126Z,67.93
2018-07-27T08:34:43.639Z,67.44
2018-07-27T08:35:24.123Z,66.37
2018-07-27T08:36:04.651Z,64.22
2018-07-27T08:36:45.161Z,63.54
2018-07-27T08:37:25.650Z,59.96
2018-07-27T08:38:06.701Z,63.38
2018-07-27T08:38:46.701Z,62.89
2018-07-27T08:39:27.245Z,62.4
2018-07-27T08:40:07.698Z,60.94
2018-07-27T08:40:48.235Z,58.4
2018-07-27T08:41:28.750Z,64.06
2018-07-27T08:42:09.364Z,67.97
2018-07-27T08:42:49.922Z,63.67
2018-07-27T08:43:30.380Z,60.45
2018-07-27T08:44:10.873Z,61.43
2018-07-27T08:44:51.374Z,63.38
2018-07-27T08:45:31.900Z,64
2018-07-27T08:46:12.401Z,60.06
2018-07-27T08:46:52.850Z,59.3
2018-07-27T08:47:33.421Z,59.4
2018-07-27T08:48:13.827Z,58.69
2018-07-27T08:48:54.420Z,64